Haverhill, NH (03765)

3:27 PM EDT on September 25, 2016 (GMT -0400)
Goshen Heights | | Change Station
Active Advisory: Freeze Warning

Elev 1060 ft 44.01 °N, 72.14 °W | Updated 1 second ago

Clear
Clear
58.0 °F
Feels Like 58.0 °F
N
5.0
Wind Variable Wind from SW
Gusts 6.0 mph

Today
High -- | Low -- °F
--% Chance of Precip.
Yesterday
High -- | Low -- °F
Precip. -- in
Pressure 30.10 in
Visibility 10.0 miles
Clouds Clear
Dew Point 40 °F
Humidity 52%
Rainfall 0.00 in
Snow Depth Not available.
6:39 AM 6:39 PM
Waning Crescent, 25% visible
METAR K1P1 251915Z AUTO 30010G16KT 10SM CLR 16/00 A3010 RMK AO2 T01550003
Pressure 30.10 in
Visibility 10.0 miles
Clouds Clear
Dew Point 40 °F
Humidity 52%
Rainfall 0.00 in
Snow Depth Not available.
6:39 AM 6:39 PM
Waning Crescent, 25% visible
METAR K1P1 251915Z AUTO 30010G16KT 10SM CLR 16/00 A3010 RMK AO2 T01550003

10-Day Weather Forecast

Almanac

Astronomy

Sep. 25, 2016 Rise Set
Actual Time
Civil Twilight
Nautical Twilight
Astronomical Twilight
Moon
Length of Visible Light
Length of Day
Tomorrow will be .
, % of the Moon is Illuminated

Today's Extremes

State Highs State Lows

Community

WunderPhotos

Upload Photos

1,941,703 photos uploaded!

WunderBlog® & News

Nearby

Air Quality

  Air Quality AQ Index Pollutant
Not available.

Snow Depth

Station Depth Elevation

Earthquake Activity

City Distance Mag. Time & Date
Minimum magnitude displayed is 2.5.

Coastal Water Temperatures

Place Temperature

Stations

Nearby Weather Stations

Station Location Temp. Windchill Dew Point Humidity Wind Precip. Elev Updated Type
                   

Watches & Warnings

Freeze Warning
Issued: 2:40 PM EDT Sep. 25, 2016 – National Weather Service

... Freeze warning in effect from midnight tonight to 8 am EDT
Monday...

The National Weather Service in gray has issued a freeze
warning... which is in effect from midnight tonight to 8 am EDT
Monday.

* Temperatures... upper 20s to lower 30s.

* Timing... overnight.

* Impacts... freezing temperatures will kill vegetation.

Precautionary/preparedness actions...

A freeze warning means sub-freezing temperatures are imminent or
highly likely. These conditions will kill crops and other
sensitive vegetation.